Main page
METAR-TAF:

METAR-TAF

Airports :

Harry Stern Airport

Wahpeton, North Dakota, United States

latitude: 46-14-39N, longitude: 096-36-26W, elevation: 968 ft

Current weather observation

The report was made 11 minutes ago, at 09:35 UTC
Wind 9 mph from the Southeast
Temperature 21°F
Humidity 93%
Pressure 29.93 in. Hg
Visibility: 10 miles
Overcast at a height of 7000 ft

METAR: KBWP 020935Z AUTO 14008KT 10SM OVC070 M06/M07 A2993 RMK AO2

Time: 03:46 (09:46 UTC)


TAF: missing

Weather observations and forecasts of more than 4000 airports (METAR and TAF reports).

The available stations are represented by yellow and red dots on the map.

Hover mouse over dot to see the name of the station.

Then click to see weather observations and forecasts.

To change the map : click on the green buttons with a black cross to zoom in, on the green button with a dash to zoom out, or on the green arrows for adjacent maps.


METAR-TAF: